Time;durP1;ratioP1;P1;durP2;ratioP2;P2;SDS_P1;SDS_P2;PMS_P1;PMS_P2;Temp;Humidity;BMP_temperature;BMP_pressure;BME280_temperature;BME280_humidity;BME280_pressure;Samples;Min_cycle;Max_cycle;Signal;HPM_P1;HPM_P2
2020/12/27 00:00:19;;;;;;;6.07;4.23;;;1.20;99.90;;;;;;5069093;28;20232;-59
2020/12/27 00:02:44;;;;;;;4.60;4.00;;;1.00;99.70;;;;;;5069474;28;20307;-59
2020/12/27 00:05:10;;;;;;;4.37;3.97;;;0.80;99.80;;;;;;5070454;28;20184;-59
2020/12/27 00:07:36;;;;;;;5.63;3.70;;;0.70;99.90;;;;;;5069132;28;20205;-58
2020/12/27 00:10:06;;;;;;;5.22;3.45;;;1.00;99.90;;;;;;5068850;28;20665;-59
2020/12/27 00:12:35;;;;;;;3.90;3.50;;;0.70;99.60;;;;;;5069018;28;20189;-58
2020/12/27 00:15:01;;;;;;;5.10;4.20;;;1.20;99.20;;;;;;5069171;28;20185;-58
2020/12/27 00:17:26;;;;;;;5.20;4.40;;;0.80;99.00;;;;;;5068476;28;20205;-58
2020/12/27 00:19:52;;;;;;;5.10;4.27;;;1.00;99.20;;;;;;5068174;28;20613;-59
2020/12/27 00:22:20;;;;;;;4.53;3.73;;;0.80;99.50;;;;;;5068865;28;20268;-59
2020/12/27 00:24:46;;;;;;;4.88;3.90;;;0.90;99.80;;;;;;5055611;28;20277;-58
2020/12/27 00:27:13;;;;;;;5.37;3.87;;;0.80;99.90;;;;;;5066472;28;20675;-58
2020/12/27 00:29:39;;;;;;;5.10;3.85;;;1.00;99.90;;;;;;5059391;28;20953;-59
2020/12/27 00:32:05;;;;;;;4.97;3.83;;;0.80;99.90;;;;;;5068418;28;20215;-58
2020/12/27 00:34:31;;;;;;;3.87;3.47;;;0.90;99.90;;;;;;5068693;28;20181;-59
2020/12/27 00:36:57;;;;;;;6.33;4.13;;;0.80;99.90;;;;;;5068664;28;20436;-59
2020/12/27 00:39:23;;;;;;;4.05;3.63;;;0.80;99.90;;;;;;5068270;28;20404;-59
2020/12/27 00:41:49;;;;;;;4.47;3.83;;;1.00;99.90;;;;;;5068606;28;20181;-58
2020/12/27 00:44:16;;;;;;;5.37;4.00;;;0.70;99.90;;;;;;5068764;28;20191;-58
2020/12/27 00:46:42;;;;;;;4.75;4.25;;;0.70;99.90;;;;;;5068443;28;20457;-58
2020/12/27 00:49:07;;;;;;;5.00;4.37;;;0.80;99.90;;;;;;5061998;28;20277;-58
2020/12/27 00:51:33;;;;;;;4.70;4.07;;;0.70;99.90;;;;;;5058030;28;20204;-58
2020/12/27 00:53:58;;;;;;;7.57;4.00;;;0.70;99.90;;;;;;5068318;28;20189;-58
2020/12/27 00:56:24;;;;;;;4.53;3.87;;;0.50;99.90;;;;;;5067911;28;20681;-58
2020/12/27 00:58:50;;;;;;;6.00;4.47;;;0.70;99.90;;;;;;5068145;28;20209;-59
2020/12/27 01:01:15;;;;;;;6.97;4.47;;;0.50;99.90;;;;;;5069856;28;20185;-58
2020/12/27 01:03:42;;;;;;;5.80;3.50;;;0.30;99.90;;;;;;5068505;28;20650;-59
2020/12/27 01:06:08;;;;;;;4.55;3.95;;;0.70;99.90;;;;;;5067840;28;20439;-59
2020/12/27 01:08:33;;;;;;;4.57;3.40;;;0.50;99.90;;;;;;5068495;28;20184;-59
2020/12/27 01:11:00;;;;;;;5.70;4.10;;;0.50;99.90;;;;;;5067972;28;20212;-59
2020/12/27 01:13:26;;;;;;;4.65;3.70;;;0.60;99.90;;;;;;5068467;28;20554;-59
2020/12/27 01:15:51;;;;;;;4.85;3.17;;;0.60;99.90;;;;;;5067958;28;20622;-58
2020/12/27 01:18:17;;;;;;;4.70;3.87;;;0.80;99.70;;;;;;5067937;28;20288;-59
2020/12/27 01:20:43;;;;;;;5.77;4.40;;;0.90;99.80;;;;;;5068112;28;20211;-59
2020/12/27 01:23:08;;;;;;;4.43;3.10;;;0.70;99.50;;;;;;5068198;28;20230;-59
2020/12/27 01:25:34;;;;;;;6.57;3.87;;;0.70;99.60;;;;;;5067865;28;20231;-59
2020/12/27 01:28:00;;;;;;;5.13;3.93;;;0.80;99.80;;;;;;5066575;28;20227;-59
2020/12/27 01:30:26;;;;;;;4.50;3.90;;;0.80;99.90;;;;;;5067536;28;20250;-59
2020/12/27 01:32:51;;;;;;;5.43;4.80;;;0.60;99.90;;;;;;5068136;28;20443;-59
2020/12/27 01:35:17;;;;;;;6.67;4.20;;;0.90;99.90;;;;;;5067890;28;20932;-59
2020/12/27 01:37:42;;;;;;;4.83;3.70;;;0.90;99.90;;;;;;5067715;28;20208;-59
2020/12/27 01:40:08;;;;;;;4.43;4.03;;;0.80;99.90;;;;;;5067772;28;20268;-59
2020/12/27 01:42:35;;;;;;;3.90;3.37;;;0.90;99.90;;;;;;5067978;28;20296;-59
2020/12/27 01:45:00;;;;;;;6.20;4.07;;;0.90;99.90;;;;;;5067845;28;20177;-59
2020/12/27 01:47:31;;;;;;;6.00;3.67;;;0.60;99.90;;;;;;5067646;28;20545;-58
2020/12/27 01:49:57;;;;;;;7.78;4.88;;;0.80;99.90;;;;;;5067543;28;20207;-59
2020/12/27 01:52:23;;;;;;;5.65;4.15;;;0.60;99.90;;;;;;5067730;28;20626;-59
2020/12/27 01:54:50;;;;;;;5.17;4.47;;;0.60;99.90;;;;;;5067884;28;20227;-58
2020/12/27 01:57:35;;;;;;;5.47;3.83;;;0.60;99.90;;;;;;5069179;28;20534;-59
2020/12/27 02:00:00;;;;;;;4.40;3.72;;;0.30;99.90;;;;;;5067730;28;20230;-59
2020/12/27 02:02:26;;;;;;;5.03;3.83;;;0.50;99.90;;;;;;5067882;28;20177;-58
2020/12/27 02:04:52;;;;;;;7.65;4.15;;;0.70;99.90;;;;;;5067825;28;20189;-59
2020/12/27 02:07:17;;;;;;;4.33;3.70;;;0.40;99.90;;;;;;5067780;28;20208;-60
2020/12/27 02:09:44;;;;;;;6.17;4.00;;;0.50;99.90;;;;;;5067754;28;20550;-59
2020/12/27 02:12:12;;;;;;;6.13;4.50;;;0.50;99.90;;;;;;5067453;28;20205;-59
2020/12/27 02:14:38;;;;;;;5.18;3.75;;;0.70;99.90;;;;;;5067987;28;20272;-60
2020/12/27 02:17:05;;;;;;;6.65;6.15;;;0.50;99.90;;;;;;5067245;28;20282;-60
2020/12/27 02:19:32;;;;;;;5.10;3.90;;;0.70;99.90;;;;;;5067622;28;20185;-59
2020/12/27 02:22:00;;;;;;;5.45;3.58;;;0.50;99.90;;;;;;5067375;28;20189;-59
2020/12/27 02:24:25;;;;;;;4.22;3.75;;;0.60;99.90;;;;;;5067689;28;20563;-59
2020/12/27 02:26:57;;;;;;;5.90;3.47;;;0.50;99.90;;;;;;5067544;28;20212;-59
2020/12/27 02:29:22;;;;;;;4.03;3.63;;;0.50;99.90;;;;;;5050773;28;20181;-59
2020/12/27 02:31:48;;;;;;;4.60;3.63;;;0.60;99.90;;;;;;5047454;28;20206;-59
2020/12/27 02:34:14;;;;;;;4.73;3.50;;;0.80;99.70;;;;;;5047471;28;20421;-59
2020/12/27 02:36:39;;;;;;;6.50;3.57;;;0.70;99.70;;;;;;5047288;28;20536;-58
2020/12/27 02:39:12;;;;;;;4.70;3.60;;;0.80;99.20;;;;;;5059153;28;20428;-58
2020/12/27 02:41:41;;;;;;;4.30;3.25;;;0.90;98.60;;;;;;5068626;28;20272;-59
2020/12/27 02:44:08;;;;;;;6.70;3.85;;;0.70;98.50;;;;;;5072310;28;20284;-59
2020/12/27 02:46:35;;;;;;;4.93;3.92;;;0.90;98.40;;;;;;5070784;28;20247;-59
2020/12/27 02:49:01;;;;;;;4.45;3.10;;;0.80;98.50;;;;;;5064396;28;20592;-59
2020/12/27 02:51:28;;;;;;;10.02;4.20;;;0.70;98.10;;;;;;5060970;28;20678;-58
2020/12/27 02:53:55;;;;;;;4.97;3.47;;;0.80;98.60;;;;;;5071737;28;20189;-59
2020/12/27 02:56:26;;;;;;;4.22;3.42;;;0.60;98.40;;;;;;5070243;28;20216;-58
2020/12/27 02:58:53;;;;;;;4.65;3.10;;;0.60;98.20;;;;;;5070564;28;20268;-59
2020/12/27 03:01:19;;;;;;;5.22;4.00;;;0.60;98.00;;;;;;5070431;28;20218;-58
2020/12/27 03:03:45;;;;;;;4.23;3.60;;;0.70;97.90;;;;;;5070538;28;20564;-59
2020/12/27 03:06:11;;;;;;;5.60;4.40;;;0.80;98.00;;;;;;5070298;28;20967;-58
2020/12/27 03:08:38;;;;;;;5.07;3.92;;;0.80;97.90;;;;;;5070219;28;20956;-59
2020/12/27 03:11:04;;;;;;;6.80;3.53;;;0.70;98.20;;;;;;5070230;28;20243;-58
2020/12/27 03:13:31;;;;;;;4.20;3.80;;;0.40;98.00;;;;;;5070254;28;20272;-58
2020/12/27 03:15:57;;;;;;;5.32;4.00;;;0.70;98.30;;;;;;5070448;28;20181;-58
2020/12/27 03:18:23;;;;;;;4.43;3.50;;;0.70;98.20;;;;;;5069977;28;20196;-58
2020/12/27 03:20:50;;;;;;;4.40;3.57;;;0.80;98.30;;;;;;5070120;28;20237;-58
2020/12/27 03:23:16;;;;;;;4.75;3.63;;;0.50;97.70;;;;;;5070458;28;20206;-58
2020/12/27 03:25:42;;;;;;;5.18;3.40;;;0.50;98.10;;;;;;5070003;28;22153;-59
2020/12/27 03:28:09;;;;;;;3.95;3.33;;;0.60;98.40;;;;;;5069796;28;20235;-59
2020/12/27 03:30:35;;;;;;;4.43;3.78;;;0.50;98.30;;;;;;5070216;28;20308;-58
2020/12/27 03:33:00;;;;;;;5.23;3.97;;;0.60;98.50;;;;;;5069942;28;20260;-58
2020/12/27 03:35:26;;;;;;;4.13;3.73;;;0.60;98.80;;;;;;5069891;28;20181;-58
2020/12/27 03:37:52;;;;;;;4.00;3.60;;;0.30;98.80;;;;;;5069759;28;20315;-58
2020/12/27 03:40:17;;;;;;;5.57;3.63;;;0.60;98.40;;;;;;5069336;28;20240;-58
2020/12/27 03:42:43;;;;;;;7.43;4.00;;;0.50;98.00;;;;;;5069732;28;20219;-58
2020/12/27 03:45:09;;;;;;;4.43;4.03;;;0.70;98.10;;;;;;5071091;28;20208;-58
2020/12/27 03:47:34;;;;;;;3.80;3.40;;;0.50;98.00;;;;;;5069526;28;20296;-58
2020/12/27 03:50:00;;;;;;;4.00;3.60;;;0.30;97.90;;;;;;5069300;28;20185;-58
2020/12/27 03:52:26;;;;;;;5.60;3.90;;;0.50;97.90;;;;;;5068780;28;20459;-58
2020/12/27 03:54:51;;;;;;;4.80;3.43;;;0.60;97.80;;;;;;5069104;28;20181;-59
2020/12/27 03:57:17;;;;;;;5.47;4.50;;;0.70;98.10;;;;;;5069209;28;20201;-59
2020/12/27 03:59:42;;;;;;;3.90;3.27;;;0.70;98.20;;;;;;5068978;28;20445;-58
2020/12/27 04:02:08;;;;;;;6.47;4.20;;;0.30;98.30;;;;;;5069227;28;20189;-58
2020/12/27 04:04:37;;;;;;;4.30;3.50;;;0.40;98.40;;;;;;5068824;28;20212;-58
2020/12/27 04:07:03;;;;;;;5.45;3.42;;;0.40;98.80;;;;;;5069202;28;21034;-59
2020/12/27 04:09:29;;;;;;;4.50;3.85;;;0.30;98.90;;;;;;5068961;28;20280;-58
2020/12/27 04:11:54;;;;;;;3.50;3.20;;;0.40;98.80;;;;;;5069129;28;20884;-59
2020/12/27 04:14:20;;;;;;;4.67;3.60;;;0.20;98.70;;;;;;5069224;28;20185;-59
2020/12/27 04:16:45;;;;;;;7.63;3.87;;;0.30;99.00;;;;;;5068799;28;20228;-58
2020/12/27 04:19:11;;;;;;;3.80;3.50;;;0.30;99.10;;;;;;5068608;28;20638;-58
2020/12/27 04:21:37;;;;;;;4.97;3.70;;;0.10;98.30;;;;;;5068836;28;20189;-58
2020/12/27 04:24:02;;;;;;;4.83;3.50;;;0.20;98.20;;;;;;5069097;28;20231;-59
2020/12/27 04:26:28;;;;;;;3.53;3.00;;;0.40;98.20;;;;;;5068583;28;20232;-58
2020/12/27 04:28:54;;;;;;;4.70;3.23;;;0.20;97.80;;;;;;5065491;28;20181;-58
2020/12/27 04:31:20;;;;;;;4.27;3.77;;;0.20;98.00;;;;;;5068883;28;20262;-58
2020/12/27 04:33:49;;;;;;;5.10;3.97;;;0.50;98.10;;;;;;5068754;28;20272;-59
2020/12/27 04:36:19;;;;;;;5.38;3.40;;;0.40;98.10;;;;;;5068686;28;20212;-58
2020/12/27 04:38:45;;;;;;;4.47;3.35;;;0.40;99.00;;;;;;5068409;28;20187;-58
2020/12/27 04:41:13;;;;;;;5.38;3.67;;;0.40;98.30;;;;;;5068655;28;20200;-59
2020/12/27 04:43:41;;;;;;;7.65;4.22;;;0.20;97.70;;;;;;5068550;28;20192;-59
2020/12/27 04:46:09;;;;;;;5.30;3.60;;;0.40;97.90;;;;;;5068505;28;20307;-58
2020/12/27 04:48:38;;;;;;;5.47;4.20;;;0.30;97.80;;;;;;5064683;28;20178;-58
2020/12/27 04:51:04;;;;;;;4.50;3.90;;;0.50;97.80;;;;;;5066817;28;20215;-59
2020/12/27 04:53:32;;;;;;;4.97;3.80;;;0.10;97.70;;;;;;5068545;28;20173;-59
2020/12/27 04:56:00;;;;;;;4.70;3.50;;;0.30;98.20;;;;;;5068278;28;20185;-59
2020/12/27 04:58:25;;;;;;;6.25;3.50;;;0.40;98.00;;;;;;5068098;28;20200;-58
2020/12/27 05:00:51;;;;;;;6.17;3.70;;;0.40;98.10;;;;;;5068422;28;20651;-58
2020/12/27 05:03:17;;;;;;;4.00;3.57;;;0.30;98.00;;;;;;5068416;28;20192;-59
2020/12/27 05:05:43;;;;;;;6.10;3.97;;;0.50;97.90;;;;;;5068322;28;20185;-58
2020/12/27 05:08:09;;;;;;;3.80;3.30;;;0.30;98.30;;;;;;5068140;28;20284;-59
2020/12/27 05:10:41;;;;;;;6.13;4.10;;;0.50;98.20;;;;;;5068254;28;20646;-58
2020/12/27 05:13:11;;;;;;;4.53;3.80;;;0.30;98.30;;;;;;5049717;28;20257;-59
2020/12/27 05:15:41;;;;;;;4.63;3.75;;;0.30;98.20;;;;;;5048001;28;20174;-58
2020/12/27 05:18:08;;;;;;;5.38;4.65;;;0.30;98.20;;;;;;5047958;28;20467;-58
2020/12/27 05:20:35;;;;;;;4.25;3.70;;;0.40;98.30;;;;;;5048174;28;20223;-59
2020/12/27 05:23:02;;;;;;;5.32;4.03;;;0.40;98.30;;;;;;5048375;28;20182;-58
2020/12/27 05:25:32;;;;;;;5.78;4.00;;;0.20;98.20;;;;;;5048133;28;20193;-58
2020/12/27 05:28:01;;;;;;;4.57;4.05;;;0.10;98.50;;;;;;5052776;28;20208;-58
2020/12/27 05:30:29;;;;;;;5.30;3.75;;;0.20;98.60;;;;;;5054454;28;20594;-59
2020/12/27 05:32:56;;;;;;;5.78;4.53;;;0.30;98.80;;;;;;5048247;28;20592;-59
2020/12/27 05:35:22;;;;;;;5.20;3.95;;;0.30;99.10;;;;;;5048512;28;20259;-59
2020/12/27 05:37:52;;;;;;;4.97;3.78;;;0.50;98.70;;;;;;5049172;28;20686;-59
2020/12/27 05:40:18;;;;;;;4.07;3.63;;;0.20;98.90;;;;;;5047718;28;20739;-58
2020/12/27 05:42:45;;;;;;;4.22;3.65;;;0.30;98.70;;;;;;5048349;28;20296;-58
2020/12/27 05:45:21;;;;;;;5.20;3.85;;;0.50;99.10;;;;;;5052844;28;20623;-59
2020/12/27 05:47:47;;;;;;;5.75;3.70;;;0.30;99.00;;;;;;5065647;28;20193;-58
2020/12/27 05:50:15;;;;;;;6.57;4.50;;;0.40;99.10;;;;;;5064934;28;20273;-59
2020/12/27 05:52:46;;;;;;;4.45;4.05;;;0.60;99.40;;;;;;5062991;28;20196;-58
2020/12/27 05:55:22;;;;;;;5.75;4.43;;;0.50;99.20;;;;;;5067596;28;20276;-59
2020/12/27 05:57:57;;;;;;;4.88;3.72;;;0.60;99.30;;;;;;5067507;28;20287;-58
2020/12/27 06:00:24;;;;;;;3.97;3.45;;;0.40;99.30;;;;;;5067526;28;20527;-59
2020/12/27 06:02:59;;;;;;;4.68;3.85;;;0.60;99.30;;;;;;5067883;28;20666;-58
2020/12/27 06:05:40;;;;;;;4.47;3.60;;;0.60;99.20;;;;;;5067299;28;20711;-58
2020/12/27 06:08:29;;;;;;;4.35;3.92;;;0.60;99.00;;;;;;5067395;28;20214;-59
2020/12/27 06:11:07;;;;;;;4.80;3.90;;;0.40;99.00;;;;;;5039133;28;20300;-59
2020/12/27 06:14:10;;;;;;;5.20;3.58;;;0.40;99.30;;;;;;5067546;28;20195;-59
2020/12/27 06:16:49;;;;;;;4.45;3.53;;;0.40;99.40;;;;;;5076461;28;20550;-59
2020/12/27 06:19:23;;;;;;;5.72;3.30;;;0.50;99.30;;;;;;5070917;28;20185;-59
2020/12/27 06:22:05;;;;;;;6.05;3.92;;;0.70;99.30;;;;;;5071274;28;20203;-59
2020/12/27 06:24:31;;;;;;;4.78;4.10;;;0.50;98.90;;;;;;5070942;28;20189;-60
2020/12/27 06:26:58;;;;;;;5.10;4.03;;;0.70;99.40;;;;;;5071100;28;20209;-59
2020/12/27 06:29:30;;;;;;;5.63;3.95;;;0.60;98.80;;;;;;5067053;28;20181;-58
2020/12/27 06:31:57;;;;;;;4.88;3.92;;;0.50;99.10;;;;;;5071376;28;20748;-59
2020/12/27 06:34:23;;;;;;;7.50;4.40;;;0.80;99.00;;;;;;5070934;28;20238;-58
2020/12/27 06:36:51;;;;;;;6.00;4.30;;;0.80;99.40;;;;;;5070761;28;20208;-59
2020/12/27 06:39:30;;;;;;;4.50;3.75;;;0.80;99.20;;;;;;5070565;28;20462;-58
2020/12/27 06:42:09;;;;;;;5.18;4.38;;;0.90;99.30;;;;;;5070923;28;20195;-59
2020/12/27 06:44:39;;;;;;;4.72;4.32;;;0.70;99.10;;;;;;5071019;28;20599;-59
2020/12/27 06:47:05;;;;;;;7.55;4.22;;;0.80;99.40;;;;;;5070633;28;20686;-59
2020/12/27 06:49:31;;;;;;;3.83;3.53;;;0.60;99.30;;;;;;5070364;28;20191;-59
2020/12/27 06:51:56;;;;;;;5.60;3.57;;;0.60;99.00;;;;;;5070911;28;20309;-58
2020/12/27 06:54:42;;;;;;;4.10;3.60;;;0.60;98.90;;;;;;5070755;28;20262;-59
2020/12/27 06:57:08;;;;;;;5.30;3.90;;;0.70;99.00;;;;;;5070345;28;20217;-60
2020/12/27 06:59:37;;;;;;;5.00;3.90;;;0.70;98.90;;;;;;5070138;28;20276;-59
2020/12/27 07:02:07;;;;;;;5.25;3.83;;;0.90;98.90;;;;;;5070565;28;20203;-58
2020/12/27 07:04:36;;;;;;;5.95;3.67;;;0.80;98.90;;;;;;5071884;28;20254;-58
2020/12/27 07:07:03;;;;;;;6.25;3.92;;;0.90;99.10;;;;;;5070880;28;20605;-58
2020/12/27 07:09:31;;;;;;;3.85;3.40;;;0.80;99.10;;;;;;5070806;28;20185;-59
2020/12/27 07:12:06;;;;;;;4.25;3.85;;;0.80;98.90;;;;;;5070464;28;20669;-59
2020/12/27 07:14:42;;;;;;;5.45;3.85;;;0.70;98.70;;;;;;5071047;28;20642;-58
2020/12/27 07:17:09;;;;;;;5.22;4.00;;;1.00;98.90;;;;;;5071100;28;20223;-59
2020/12/27 07:19:36;;;;;;;5.90;3.97;;;0.90;98.30;;;;;;5069898;28;20221;-58
2020/12/27 07:22:06;;;;;;;4.20;3.25;;;0.90;98.90;;;;;;5070287;28;20193;-59
2020/12/27 07:24:40;;;;;;;4.68;3.25;;;1.00;98.40;;;;;;5069891;28;20406;-58
2020/12/27 07:27:08;;;;;;;4.70;3.90;;;0.80;98.50;;;;;;5069426;28;20217;-58
2020/12/27 07:29:35;;;;;;;4.72;4.13;;;1.10;98.60;;;;;;5064197;28;20185;-58
2020/12/27 07:32:01;;;;;;;4.45;4.05;;;0.70;98.40;;;;;;5069978;28;20213;-59
2020/12/27 07:34:29;;;;;;;5.40;4.03;;;0.90;99.00;;;;;;5070265;28;20185;-58
2020/12/27 07:37:01;;;;;;;3.80;3.20;;;0.70;99.40;;;;;;5069683;28;20209;-58
2020/12/27 07:40:00;;;;;;;4.32;3.28;;;0.90;99.20;;;;;;5069529;28;20199;-58
2020/12/27 07:42:34;;;;;;;6.95;3.85;;;1.00;99.10;;;;;;5023407;28;20281;-58
2020/12/27 07:45:02;;;;;;;4.28;3.63;;;0.90;98.90;;;;;;5061184;28;20590;-58
2020/12/27 07:47:28;;;;;;;5.10;3.40;;;1.00;98.40;;;;;;5069540;28;20209;-57
2020/12/27 07:50:20;;;;;;;3.50;3.20;;;1.10;98.30;;;;;;5069668;28;20529;-58
2020/12/27 07:52:59;;;;;;;5.18;4.30;;;1.10;98.40;;;;;;5065206;28;20432;-58
2020/12/27 07:55:30;;;;;;;4.75;3.70;;;1.10;98.90;;;;;;5069619;28;20180;-58
2020/12/27 07:58:07;;;;;;;6.13;3.90;;;0.90;98.70;;;;;;5069121;28;20284;-58
2020/12/27 08:00:34;;;;;;;6.30;3.70;;;1.10;99.20;;;;;;5069271;28;20560;-58
2020/12/27 08:03:07;;;;;;;5.88;4.60;;;1.20;99.30;;;;;;5069224;28;20672;-58
2020/12/27 08:05:37;;;;;;;5.00;3.90;;;1.10;99.20;;;;;;5069002;28;20213;-58
2020/12/27 08:08:12;;;;;;;5.10;4.43;;;0.90;98.80;;;;;;5069132;28;20209;-58
2020/12/27 08:10:39;;;;;;;4.18;3.55;;;0.50;98.50;;;;;;5068947;28;20242;-58
2020/12/27 08:13:06;;;;;;;5.05;3.85;;;1.00;98.70;;;;;;5069366;28;20192;-58
2020/12/27 08:15:37;;;;;;;4.10;3.70;;;1.10;98.30;;;;;;5068968;28;20187;-59
2020/12/27 08:18:04;;;;;;;4.55;3.83;;;1.00;98.60;;;;;;5068817;28;20205;-59
2020/12/27 08:20:52;;;;;;;4.35;3.95;;;1.10;98.40;;;;;;5069005;28;20188;-58
2020/12/27 08:23:18;;;;;;;7.35;4.38;;;1.00;98.30;;;;;;5068645;28;20650;-58
2020/12/27 08:25:44;;;;;;;5.93;3.88;;;1.10;98.30;;;;;;5068824;28;20273;-59
2020/12/27 08:28:15;;;;;;;5.25;3.75;;;1.20;97.70;;;;;;5067141;28;20200;-59
2020/12/27 08:30:41;;;;;;;4.35;3.85;;;1.10;98.40;;;;;;5059873;28;20559;-58
2020/12/27 08:33:15;;;;;;;5.17;3.70;;;1.30;98.30;;;;;;5055328;28;20185;-59
2020/12/27 08:35:43;;;;;;;4.75;4.07;;;1.50;98.60;;;;;;5068247;28;20185;-59
2020/12/27 08:38:18;;;;;;;3.88;3.40;;;1.50;98.40;;;;;;5068635;28;20201;-58
2020/12/27 08:40:46;;;;;;;4.40;3.78;;;1.70;97.80;;;;;;5067705;28;20612;-58
2020/12/27 08:43:38;;;;;;;4.80;3.58;;;1.50;97.00;;;;;;5068377;28;20638;-58
2020/12/27 08:46:08;;;;;;;3.70;3.08;;;1.40;97.10;;;;;;5068369;28;20304;-58
2020/12/27 08:48:41;;;;;;;4.43;3.53;;;1.70;97.30;;;;;;5064960;28;20186;-59
2020/12/27 08:51:07;;;;;;;4.43;3.67;;;1.80;97.20;;;;;;5066936;28;20200;-59
2020/12/27 08:53:40;;;;;;;3.80;3.50;;;1.80;96.60;;;;;;5068331;28;20235;-58
2020/12/27 08:56:08;;;;;;;3.90;3.60;;;1.60;96.50;;;;;;5068284;28;20189;-59
2020/12/27 08:58:34;;;;;;;4.45;4.05;;;1.60;96.70;;;;;;5068101;28;20288;-59
2020/12/27 09:00:59;;;;;;;4.93;3.70;;;1.70;96.40;;;;;;5068192;28;20280;-59
2020/12/27 09:03:25;;;;;;;3.83;3.43;;;1.50;96.40;;;;;;5068438;28;20242;-59
2020/12/27 09:05:50;;;;;;;5.20;4.10;;;1.90;96.70;;;;;;5068132;28;20180;-58
2020/12/27 09:08:19;;;;;;;4.07;3.60;;;1.80;96.40;;;;;;5068431;28;20232;-59
2020/12/27 09:10:47;;;;;;;5.90;4.40;;;1.80;96.30;;;;;;5067663;28;20242;-59
2020/12/27 09:13:14;;;;;;;4.20;3.70;;;1.90;96.20;;;;;;5068151;28;20189;-58
2020/12/27 09:15:48;;;;;;;4.80;3.60;;;2.10;96.50;;;;;;5069313;28;20675;-59
2020/12/27 09:18:27;;;;;;;4.25;3.33;;;1.90;96.30;;;;;;5067754;28;20301;-58
2020/12/27 09:20:58;;;;;;;5.07;4.40;;;1.90;96.00;;;;;;5067932;28;20649;-60
2020/12/27 09:23:24;;;;;;;4.70;4.00;;;2.10;95.90;;;;;;5068050;28;20657;-58
2020/12/27 09:26:04;;;;;;;4.87;3.87;;;2.10;95.90;;;;;;5067573;28;20295;-59
2020/12/27 09:28:32;;;;;;;4.40;4.00;;;2.30;95.90;;;;;;5067741;28;20430;-59
2020/12/27 09:31:12;;;;;;;5.07;4.03;;;2.30;95.70;;;;;;5067232;28;20205;-58
2020/12/27 09:33:48;;;;;;;4.18;3.60;;;2.30;95.10;;;;;;5068010;28;20626;-58
2020/12/27 09:36:15;;;;;;;4.50;4.00;;;2.30;95.20;;;;;;5067669;28;20181;-59
2020/12/27 09:38:45;;;;;;;4.80;4.18;;;2.40;95.10;;;;;;5067415;28;20217;-59
2020/12/27 09:41:11;;;;;;;5.35;4.15;;;2.20;94.90;;;;;;5067481;28;20725;-59
2020/12/27 09:44:03;;;;;;;5.35;4.55;;;2.50;95.20;;;;;;5067605;28;20520;-58
2020/12/27 09:46:51;;;;;;;5.13;3.88;;;2.60;95.10;;;;;;5057417;28;20225;-59
2020/12/27 09:49:24;;;;;;;4.07;3.53;;;2.50;94.80;;;;;;5067691;28;20219;-58
2020/12/27 09:52:02;;;;;;;4.13;3.35;;;2.70;94.90;;;;;;5069155;28;20746;-58
2020/12/27 09:54:30;;;;;;;3.78;3.40;;;2.80;94.00;;;;;;5071559;28;20243;-58
2020/12/27 09:56:56;;;;;;;4.38;3.97;;;3.00;93.80;;;;;;5071702;28;20193;-58
2020/12/27 09:59:22;;;;;;;5.03;3.10;;;3.00;93.60;;;;;;5071377;28;20268;-58
2020/12/27 10:01:47;;;;;;;4.50;3.40;;;3.10;93.40;;;;;;5071324;28;20181;-57
2020/12/27 10:04:13;;;;;;;3.93;3.40;;;3.00;93.50;;;;;;5071264;28;20185;-58
2020/12/27 10:06:38;;;;;;;3.77;3.30;;;3.10;93.60;;;;;;5071716;28;20679;-58
2020/12/27 10:09:04;;;;;;;4.30;3.90;;;3.10;92.90;;;;;;5071082;28;20196;-58
2020/12/27 10:11:30;;;;;;;9.10;3.60;;;3.10;92.80;;;;;;5071063;28;20278;-58
2020/12/27 10:13:56;;;;;;;4.85;4.35;;;3.30;92.70;;;;;;5071410;28;20185;-60
2020/12/27 10:16:22;;;;;;;3.20;2.90;;;3.30;92.60;;;;;;5071140;28;20327;-58
2020/12/27 10:18:50;;;;;;;4.70;3.70;;;3.40;93.20;;;;;;5071027;28;20189;-58
2020/12/27 10:21:16;;;;;;;4.70;4.20;;;3.40;92.70;;;;;;5071301;28;20616;-58
2020/12/27 10:23:41;;;;;;;4.97;4.17;;;3.20;92.40;;;;;;5071173;28;20196;-58
2020/12/27 10:26:11;;;;;;;4.50;3.20;;;3.20;92.30;;;;;;5071062;28;20204;-57
2020/12/27 10:28:36;;;;;;;4.80;3.70;;;3.10;91.60;;;;;;5067356;28;20181;-58
2020/12/27 10:31:02;;;;;;;3.73;3.33;;;3.20;92.00;;;;;;5071433;28;20201;-59
2020/12/27 10:33:28;;;;;;;4.30;3.80;;;3.40;91.90;;;;;;5070719;28;20188;-58
2020/12/27 10:35:53;;;;;;;4.60;3.70;;;3.20;91.80;;;;;;5070816;28;20275;-58
2020/12/27 10:38:19;;;;;;;4.30;3.90;;;2.90;91.80;;;;;;5070668;28;20205;-58
2020/12/27 10:40:44;;;;;;;4.00;3.57;;;3.00;92.30;;;;;;5071150;28;20200;-59
2020/12/27 10:43:10;;;;;;;4.00;3.60;;;3.40;92.20;;;;;;5070797;28;20200;-59
2020/12/27 10:45:35;;;;;;;6.17;3.77;;;3.30;92.10;;;;;;5070916;28;20280;-59
2020/12/27 10:48:01;;;;;;;4.60;3.50;;;3.40;91.80;;;;;;5067382;28;20278;-59
2020/12/27 10:50:30;;;;;;;7.50;3.77;;;3.30;91.40;;;;;;5063722;28;20185;-59
2020/12/27 10:52:55;;;;;;;4.75;3.95;;;3.70;91.30;;;;;;5070372;28;20192;-60
2020/12/27 10:55:21;;;;;;;4.60;4.20;;;3.40;91.50;;;;;;5070635;28;20189;-60
2020/12/27 10:57:47;;;;;;;6.00;4.23;;;3.60;90.70;;;;;;5070653;28;20739;-58
2020/12/27 11:00:12;;;;;;;6.90;3.70;;;3.50;91.40;;;;;;5070575;28;20213;-58
2020/12/27 11:02:38;;;;;;;5.23;3.70;;;3.60;91.20;;;;;;5069963;28;20181;-58
2020/12/27 11:05:03;;;;;;;5.70;4.03;;;3.40;91.50;;;;;;5070527;28;20174;-58
2020/12/27 11:07:29;;;;;;;5.17;4.67;;;3.50;91.40;;;;;;5070323;28;20292;-58
2020/12/27 11:09:54;;;;;;;4.23;3.70;;;3.50;91.20;;;;;;5070003;28;20701;-58
2020/12/27 11:12:20;;;;;;;4.23;3.83;;;3.40;91.20;;;;;;5070635;28;20193;-59
2020/12/27 11:14:46;;;;;;;6.63;5.07;;;3.50;91.30;;;;;;5071745;28;20200;-59
2020/12/27 11:17:11;;;;;;;8.47;5.00;;;3.80;91.60;;;;;;5070425;28;20203;-58
2020/12/27 11:19:37;;;;;;;4.87;4.17;;;3.80;91.60;;;;;;5070462;28;20548;-59
2020/12/27 11:22:05;;;;;;;4.93;4.43;;;4.00;91.60;;;;;;5070248;28;20233;-58
2020/12/27 11:24:31;;;;;;;4.70;4.30;;;3.60;91.70;;;;;;5070170;28;20621;-59
2020/12/27 11:26:56;;;;;;;5.63;4.83;;;3.60;91.60;;;;;;5070085;28;20266;-59
2020/12/27 11:29:22;;;;;;;7.37;4.97;;;3.90;91.70;;;;;;5050845;28;20197;-59
2020/12/27 11:31:53;;;;;;;6.27;5.27;;;3.80;91.60;;;;;;5064629;28;20200;-58
2020/12/27 11:34:18;;;;;;;6.18;4.70;;;4.10;91.70;;;;;;5050138;28;20197;-59
2020/12/27 11:36:47;;;;;;;6.00;4.73;;;3.80;92.20;;;;;;5049717;28;20670;-58
2020/12/27 11:39:13;;;;;;;5.30;4.80;;;3.90;92.90;;;;;;5049481;28;20303;-59
2020/12/27 11:41:38;;;;;;;7.47;5.70;;;3.60;92.00;;;;;;5050157;28;20695;-59
2020/12/27 11:44:04;;;;;;;5.40;4.33;;;3.70;92.00;;;;;;5069498;28;20189;-59
2020/12/27 11:46:29;;;;;;;16.13;5.30;;;3.70;92.30;;;;;;5069647;28;20623;-59
2020/12/27 11:48:55;;;;;;;5.73;5.13;;;3.80;92.50;;;;;;5063191;28;20207;-59
2020/12/27 11:51:21;;;;;;;5.97;5.37;;;4.10;92.70;;;;;;5060137;28;20209;-58
2020/12/27 11:53:46;;;;;;;5.70;4.70;;;3.80;92.30;;;;;;5069506;28;20250;-58
2020/12/27 11:56:20;;;;;;;4.80;4.30;;;3.90;92.10;;;;;;5069416;28;20193;-58
2020/12/27 11:58:45;;;;;;;6.30;4.90;;;4.00;92.40;;;;;;5068823;28;20181;-59
2020/12/27 12:01:12;;;;;;;5.73;5.07;;;3.70;92.70;;;;;;5069370;28;20246;-59
2020/12/27 12:03:38;;;;;;;5.82;5.32;;;3.80;93.00;;;;;;5069421;28;20210;-58
2020/12/27 12:06:03;;;;;;;5.50;5.00;;;4.00;92.80;;;;;;5068815;28;20257;-59
2020/12/27 12:08:29;;;;;;;5.73;5.23;;;4.20;92.60;;;;;;5069027;28;20435;-59
2020/12/27 12:10:54;;;;;;;8.07;6.10;;;4.20;92.70;;;;;;5069918;28;20196;-59
2020/12/27 12:13:20;;;;;;;5.37;4.87;;;3.90;92.50;;;;;;5069011;28;20268;-58
2020/12/27 12:15:46;;;;;;;5.53;5.03;;;4.00;92.80;;;;;;5068420;28;20189;-59
2020/12/27 12:18:11;;;;;;;5.67;4.90;;;4.00;92.70;;;;;;5068816;28;20212;-59
2020/12/27 12:20:45;;;;;;;6.23;4.83;;;4.20;92.80;;;;;;5068848;28;20647;-59
2020/12/27 12:23:11;;;;;;;6.57;5.30;;;4.00;93.00;;;;;;5068798;28;20181;-59
2020/12/27 12:25:43;;;;;;;6.85;6.15;;;3.90;92.50;;;;;;5068761;28;20208;-59
2020/12/27 12:28:09;;;;;;;5.60;4.80;;;4.00;93.30;;;;;;5068621;28;20207;-58
2020/12/27 12:30:35;;;;;;;6.17;5.20;;;4.00;93.20;;;;;;5068753;28;20189;-59
2020/12/27 12:33:00;;;;;;;8.17;5.57;;;3.90;93.10;;;;;;5068165;28;20423;-59
2020/12/27 12:35:26;;;;;;;6.57;5.53;;;3.80;93.10;;;;;;5068459;28;20826;-59
2020/12/27 12:37:52;;;;;;;5.70;5.10;;;4.00;93.60;;;;;;5068375;28;20686;-58
2020/12/27 12:40:17;;;;;;;5.63;5.07;;;4.10;93.40;;;;;;5068383;28;20435;-59
2020/12/27 12:42:43;;;;;;;5.80;5.30;;;4.00;93.30;;;;;;5068692;28;20651;-59
2020/12/27 12:45:09;;;;;;;7.47;5.87;;;4.00;93.50;;;;;;5068543;28;20192;-58
2020/12/27 12:47:35;;;;;;;7.07;5.73;;;4.40;93.60;;;;;;5068222;28;20262;-59
2020/12/27 12:50:01;;;;;;;8.02;5.25;;;4.20;93.50;;;;;;5069225;28;20208;-58
2020/12/27 12:52:26;;;;;;;8.70;5.80;;;3.80;93.90;;;;;;5068177;28;20249;-59
2020/12/27 12:54:52;;;;;;;5.73;5.03;;;3.90;94.30;;;;;;5068377;28;20185;-59
2020/12/27 12:57:18;;;;;;;6.30;5.70;;;3.80;94.30;;;;;;5067564;28;20455;-58
2020/12/27 12:59:43;;;;;;;5.97;5.37;;;4.20;94.20;;;;;;5068750;28;20184;-59
2020/12/27 13:02:09;;;;;;;5.70;5.20;;;4.10;93.70;;;;;;5068255;28;20192;-59